sensor_id;sensor_type;location;lat;lon;timestamp;temperature;humidity
17128;DHT22;8679;50.842;4.322;2023-02-25T00:00:29;4.50;99.90
17128;DHT22;8679;50.842;4.322;2023-02-25T00:02:56;4.50;99.90
17128;DHT22;8679;50.842;4.322;2023-02-25T00:05:22;4.60;99.90
17128;DHT22;8679;50.842;4.322;2023-02-25T00:07:48;4.70;99.90
17128;DHT22;8679;50.842;4.322;2023-02-25T00:10:14;4.80;99.90
17128;DHT22;8679;50.842;4.322;2023-02-25T00:12:41;4.80;99.90
17128;DHT22;8679;50.842;4.322;2023-02-25T00:15:08;4.80;99.90
17128;DHT22;8679;50.842;4.322;2023-02-25T00:17:34;4.70;99.90
17128;DHT22;8679;50.842;4.322;2023-02-25T00:20:00;4.70;99.90
17128;DHT22;8679;50.842;4.322;2023-02-25T00:22:26;4.70;99.90
17128;DHT22;8679;50.842;4.322;2023-02-25T00:24:56;4.60;99.90
17128;DHT22;8679;50.842;4.322;2023-02-25T00:27:23;4.60;99.90
17128;DHT22;8679;50.842;4.322;2023-02-25T00:29:52;4.60;99.90
17128;DHT22;8679;50.842;4.322;2023-02-25T00:32:18;4.70;99.90
17128;DHT22;8679;50.842;4.322;2023-02-25T00:34:44;4.70;99.90
17128;DHT22;8679;50.842;4.322;2023-02-25T00:37:11;4.70;99.90
17128;DHT22;8679;50.842;4.322;2023-02-25T00:39:36;4.60;99.90
17128;DHT22;8679;50.842;4.322;2023-02-25T00:42:13;4.60;99.90
17128;DHT22;8679;50.842;4.322;2023-02-25T00:44:42;4.50;99.90
17128;DHT22;8679;50.842;4.322;2023-02-25T00:47:08;4.50;99.90
17128;DHT22;8679;50.842;4.322;2023-02-25T00:49:34;4.50;99.90
17128;DHT22;8679;50.842;4.322;2023-02-25T00:52:00;4.50;99.90
17128;DHT22;8679;50.842;4.322;2023-02-25T00:54:26;4.50;99.90
17128;DHT22;8679;50.842;4.322;2023-02-25T00:56:51;4.60;99.90
17128;DHT22;8679;50.842;4.322;2023-02-25T00:59:17;4.50;99.90
17128;DHT22;8679;50.842;4.322;2023-02-25T01:01:43;4.60;99.90
17128;DHT22;8679;50.842;4.322;2023-02-25T01:04:09;4.60;99.90
17128;DHT22;8679;50.842;4.322;2023-02-25T01:06:36;4.60;99.90
17128;DHT22;8679;50.842;4.322;2023-02-25T01:09:04;4.60;99.90
17128;DHT22;8679;50.842;4.322;2023-02-25T01:11:33;4.60;99.90
17128;DHT22;8679;50.842;4.322;2023-02-25T01:14:04;4.60;99.90
17128;DHT22;8679;50.842;4.322;2023-02-25T01:16:32;4.60;99.90
17128;DHT22;8679;50.842;4.322;2023-02-25T01:19:03;4.60;99.90
17128;DHT22;8679;50.842;4.322;2023-02-25T01:21:35;4.60;99.90
17128;DHT22;8679;50.842;4.322;2023-02-25T01:24:05;4.60;99.90
17128;DHT22;8679;50.842;4.322;2023-02-25T01:26:33;4.60;99.90
17128;DHT22;8679;50.842;4.322;2023-02-25T01:28:59;4.60;99.90
17128;DHT22;8679;50.842;4.322;2023-02-25T01:31:25;4.70;99.90
17128;DHT22;8679;50.842;4.322;2023-02-25T01:34:00;4.60;99.90
17128;DHT22;8679;50.842;4.322;2023-02-25T01:36:27;4.60;99.90
17128;DHT22;8679;50.842;4.322;2023-02-25T01:38:53;4.50;99.90
17128;DHT22;8679;50.842;4.322;2023-02-25T01:41:21;4.50;99.90
17128;DHT22;8679;50.842;4.322;2023-02-25T01:46:56;4.50;99.90
17128;DHT22;8679;50.842;4.322;2023-02-25T01:52:03;4.50;99.90
17128;DHT22;8679;50.842;4.322;2023-02-25T01:54:32;4.40;99.90
17128;DHT22;8679;50.842;4.322;2023-02-25T01:56:58;4.30;99.90
17128;DHT22;8679;50.842;4.322;2023-02-25T01:59:26;4.50;99.90
17128;DHT22;8679;50.842;4.322;2023-02-25T02:01:53;4.50;99.90
17128;DHT22;8679;50.842;4.322;2023-02-25T02:04:19;4.40;99.90
17128;DHT22;8679;50.842;4.322;2023-02-25T02:06:47;4.30;99.90
17128;DHT22;8679;50.842;4.322;2023-02-25T02:09:18;4.20;99.90
17128;DHT22;8679;50.842;4.322;2023-02-25T02:11:44;4.20;99.90
17128;DHT22;8679;50.842;4.322;2023-02-25T02:14:13;4.30;99.90
17128;DHT22;8679;50.842;4.322;2023-02-25T02:27:09;4.20;99.90
17128;DHT22;8679;50.842;4.322;2023-02-25T02:38:18;4.40;99.90
17128;DHT22;8679;50.842;4.322;2023-02-25T02:40:53;4.40;99.90
17128;DHT22;8679;50.842;4.322;2023-02-25T02:46:18;4.50;99.90
17128;DHT22;8679;50.842;4.322;2023-02-25T02:48:54;4.60;99.90
17128;DHT22;8679;50.842;4.322;2023-02-25T02:51:37;4.50;99.90
17128;DHT22;8679;50.842;4.322;2023-02-25T02:54:05;4.50;99.90
17128;DHT22;8679;50.842;4.322;2023-02-25T02:56:34;4.50;99.90
17128;DHT22;8679;50.842;4.322;2023-02-25T02:59:10;4.40;99.90
17128;DHT22;8679;50.842;4.322;2023-02-25T03:01:41;4.40;99.90
17128;DHT22;8679;50.842;4.322;2023-02-25T03:04:15;4.30;99.90
17128;DHT22;8679;50.842;4.322;2023-02-25T03:06:48;4.30;99.90
17128;DHT22;8679;50.842;4.322;2023-02-25T03:09:21;4.30;99.90
17128;DHT22;8679;50.842;4.322;2023-02-25T03:11:48;4.30;99.90
17128;DHT22;8679;50.842;4.322;2023-02-25T03:14:13;4.40;99.90
17128;DHT22;8679;50.842;4.322;2023-02-25T03:17:10;4.40;99.90
17128;DHT22;8679;50.842;4.322;2023-02-25T03:19:45;4.40;99.90
17128;DHT22;8679;50.842;4.322;2023-02-25T03:22:14;4.40;99.90
17128;DHT22;8679;50.842;4.322;2023-02-25T03:24:47;4.40;99.90
17128;DHT22;8679;50.842;4.322;2023-02-25T03:27:30;4.40;99.90
17128;DHT22;8679;50.842;4.322;2023-02-25T03:30:09;4.50;99.90
17128;DHT22;8679;50.842;4.322;2023-02-25T03:32:40;4.50;99.90
17128;DHT22;8679;50.842;4.322;2023-02-25T03:35:08;4.50;99.90
17128;DHT22;8679;50.842;4.322;2023-02-25T03:37:36;4.40;99.90
17128;DHT22;8679;50.842;4.322;2023-02-25T03:40:04;4.40;99.90
17128;DHT22;8679;50.842;4.322;2023-02-25T03:42:44;4.40;99.90
17128;DHT22;8679;50.842;4.322;2023-02-25T03:45:12;4.40;99.90
17128;DHT22;8679;50.842;4.322;2023-02-25T03:47:40;4.50;99.90
17128;DHT22;8679;50.842;4.322;2023-02-25T03:52:35;4.40;99.90
17128;DHT22;8679;50.842;4.322;2023-02-25T03:55:03;4.40;99.90
17128;DHT22;8679;50.842;4.322;2023-02-25T03:57:37;4.30;99.90
17128;DHT22;8679;50.842;4.322;2023-02-25T04:00:09;4.30;99.90
17128;DHT22;8679;50.842;4.322;2023-02-25T04:02:43;4.30;99.90
17128;DHT22;8679;50.842;4.322;2023-02-25T04:05:10;4.30;99.90
17128;DHT22;8679;50.842;4.322;2023-02-25T04:07:36;4.30;99.90
17128;DHT22;8679;50.842;4.322;2023-02-25T04:10:03;4.30;99.90
17128;DHT22;8679;50.842;4.322;2023-02-25T04:12:29;4.30;99.90
17128;DHT22;8679;50.842;4.322;2023-02-25T04:15:01;4.40;99.90
17128;DHT22;8679;50.842;4.322;2023-02-25T04:17:27;4.40;99.90
17128;DHT22;8679;50.842;4.322;2023-02-25T04:19:53;4.50;99.90
17128;DHT22;8679;50.842;4.322;2023-02-25T04:22:19;4.50;99.90
17128;DHT22;8679;50.842;4.322;2023-02-25T04:24:44;4.40;99.90
17128;DHT22;8679;50.842;4.322;2023-02-25T04:27:10;4.40;99.90
17128;DHT22;8679;50.842;4.322;2023-02-25T04:29:36;4.40;99.90
17128;DHT22;8679;50.842;4.322;2023-02-25T04:32:01;4.30;99.90
17128;DHT22;8679;50.842;4.322;2023-02-25T04:34:27;4.40;99.90
17128;DHT22;8679;50.842;4.322;2023-02-25T04:36:53;4.40;99.90
17128;DHT22;8679;50.842;4.322;2023-02-25T04:39:18;4.30;99.90
17128;DHT22;8679;50.842;4.322;2023-02-25T04:41:44;4.30;99.90
17128;DHT22;8679;50.842;4.322;2023-02-25T04:44:10;4.30;99.90
17128;DHT22;8679;50.842;4.322;2023-02-25T04:46:39;4.40;99.90
17128;DHT22;8679;50.842;4.322;2023-02-25T04:49:06;4.40;99.90
17128;DHT22;8679;50.842;4.322;2023-02-25T04:51:32;4.30;99.90
17128;DHT22;8679;50.842;4.322;2023-02-25T04:53:58;4.30;99.90
17128;DHT22;8679;50.842;4.322;2023-02-25T04:56:24;4.30;99.90
17128;DHT22;8679;50.842;4.322;2023-02-25T04:58:50;4.40;99.90
17128;DHT22;8679;50.842;4.322;2023-02-25T05:01:16;4.30;99.90
17128;DHT22;8679;50.842;4.322;2023-02-25T05:03:41;4.40;99.90
17128;DHT22;8679;50.842;4.322;2023-02-25T05:06:08;4.60;99.90
17128;DHT22;8679;50.842;4.322;2023-02-25T05:08:34;4.60;99.90
17128;DHT22;8679;50.842;4.322;2023-02-25T05:11:00;4.70;99.90
17128;DHT22;8679;50.842;4.322;2023-02-25T05:13:27;4.80;99.90
17128;DHT22;8679;50.842;4.322;2023-02-25T05:16:05;4.80;99.90
17128;DHT22;8679;50.842;4.322;2023-02-25T05:18:35;4.90;99.90
17128;DHT22;8679;50.842;4.322;2023-02-25T05:21:00;4.90;99.90
17128;DHT22;8679;50.842;4.322;2023-02-25T05:23:26;5.00;99.90
17128;DHT22;8679;50.842;4.322;2023-02-25T05:25:52;5.10;99.90
17128;DHT22;8679;50.842;4.322;2023-02-25T05:28:18;5.10;99.90
17128;DHT22;8679;50.842;4.322;2023-02-25T05:30:43;5.10;99.90
17128;DHT22;8679;50.842;4.322;2023-02-25T05:33:09;5.00;99.90
17128;DHT22;8679;50.842;4.322;2023-02-25T05:35:38;4.90;99.90
17128;DHT22;8679;50.842;4.322;2023-02-25T05:38:04;4.80;99.90
17128;DHT22;8679;50.842;4.322;2023-02-25T05:40:29;4.80;99.90
17128;DHT22;8679;50.842;4.322;2023-02-25T05:42:55;4.70;99.90
17128;DHT22;8679;50.842;4.322;2023-02-25T05:45:21;4.80;99.90
17128;DHT22;8679;50.842;4.322;2023-02-25T05:47:46;4.90;99.90
17128;DHT22;8679;50.842;4.322;2023-02-25T05:50:12;4.90;99.90
17128;DHT22;8679;50.842;4.322;2023-02-25T05:52:38;4.90;99.90
17128;DHT22;8679;50.842;4.322;2023-02-25T05:55:04;4.80;99.90
17128;DHT22;8679;50.842;4.322;2023-02-25T05:57:30;4.80;99.90
17128;DHT22;8679;50.842;4.322;2023-02-25T05:59:55;4.80;99.90
17128;DHT22;8679;50.842;4.322;2023-02-25T06:02:21;4.90;99.90
17128;DHT22;8679;50.842;4.322;2023-02-25T06:04:47;4.80;99.90
17128;DHT22;8679;50.842;4.322;2023-02-25T06:07:13;4.80;99.90
17128;DHT22;8679;50.842;4.322;2023-02-25T06:09:39;4.80;99.90
17128;DHT22;8679;50.842;4.322;2023-02-25T06:12:04;4.80;99.90
17128;DHT22;8679;50.842;4.322;2023-02-25T06:14:30;4.90;99.90
17128;DHT22;8679;50.842;4.322;2023-02-25T06:16:56;4.80;99.90
17128;DHT22;8679;50.842;4.322;2023-02-25T06:19:23;4.80;99.90
17128;DHT22;8679;50.842;4.322;2023-02-25T06:21:54;4.80;99.90
17128;DHT22;8679;50.842;4.322;2023-02-25T06:24:23;4.70;99.90
17128;DHT22;8679;50.842;4.322;2023-02-25T06:26:49;4.70;99.90
17128;DHT22;8679;50.842;4.322;2023-02-25T06:29:15;4.60;99.90
17128;DHT22;8679;50.842;4.322;2023-02-25T06:31:40;4.60;99.90
17128;DHT22;8679;50.842;4.322;2023-02-25T06:34:07;4.60;99.90
17128;DHT22;8679;50.842;4.322;2023-02-25T06:36:33;4.60;99.90
17128;DHT22;8679;50.842;4.322;2023-02-25T06:38:59;4.60;99.90
17128;DHT22;8679;50.842;4.322;2023-02-25T06:41:25;4.60;99.90
17128;DHT22;8679;50.842;4.322;2023-02-25T06:43:51;4.60;99.90
17128;DHT22;8679;50.842;4.322;2023-02-25T06:46:19;4.60;99.90
17128;DHT22;8679;50.842;4.322;2023-02-25T06:48:45;4.70;99.90
17128;DHT22;8679;50.842;4.322;2023-02-25T06:51:11;4.70;99.90
17128;DHT22;8679;50.842;4.322;2023-02-25T06:53:41;4.70;99.90
17128;DHT22;8679;50.842;4.322;2023-02-25T06:56:09;4.70;99.90
17128;DHT22;8679;50.842;4.322;2023-02-25T06:58:36;4.70;99.90
17128;DHT22;8679;50.842;4.322;2023-02-25T07:01:15;4.70;99.90
17128;DHT22;8679;50.842;4.322;2023-02-25T07:03:42;4.70;99.90
17128;DHT22;8679;50.842;4.322;2023-02-25T07:06:08;4.60;99.90
17128;DHT22;8679;50.842;4.322;2023-02-25T07:08:34;4.60;99.90
17128;DHT22;8679;50.842;4.322;2023-02-25T07:13:39;4.70;99.90
17128;DHT22;8679;50.842;4.322;2023-02-25T07:16:08;4.60;99.90
17128;DHT22;8679;50.842;4.322;2023-02-25T07:18:34;4.60;99.90
17128;DHT22;8679;50.842;4.322;2023-02-25T07:21:00;4.60;99.90
17128;DHT22;8679;50.842;4.322;2023-02-25T07:23:25;4.70;99.90
17128;DHT22;8679;50.842;4.322;2023-02-25T07:25:51;4.70;99.90
17128;DHT22;8679;50.842;4.322;2023-02-25T07:28:16;4.80;99.90
17128;DHT22;8679;50.842;4.322;2023-02-25T07:30:42;4.90;99.90
17128;DHT22;8679;50.842;4.322;2023-02-25T07:33:07;4.90;99.90
17128;DHT22;8679;50.842;4.322;2023-02-25T07:35:33;4.90;99.90
17128;DHT22;8679;50.842;4.322;2023-02-25T07:37:59;4.90;99.90
17128;DHT22;8679;50.842;4.322;2023-02-25T07:40:25;4.90;99.90
17128;DHT22;8679;50.842;4.322;2023-02-25T07:42:50;4.90;99.90
17128;DHT22;8679;50.842;4.322;2023-02-25T07:45:16;5.00;99.90
17128;DHT22;8679;50.842;4.322;2023-02-25T07:47:42;5.00;99.90
17128;DHT22;8679;50.842;4.322;2023-02-25T07:50:09;5.10;99.90
17128;DHT22;8679;50.842;4.322;2023-02-25T07:52:35;5.20;99.90
17128;DHT22;8679;50.842;4.322;2023-02-25T07:55:03;5.20;99.90
17128;DHT22;8679;50.842;4.322;2023-02-25T07:57:29;5.30;99.90
17128;DHT22;8679;50.842;4.322;2023-02-25T07:59:55;5.30;99.90
17128;DHT22;8679;50.842;4.322;2023-02-25T08:02:20;5.30;99.90
17128;DHT22;8679;50.842;4.322;2023-02-25T08:04:47;5.30;99.90
17128;DHT22;8679;50.842;4.322;2023-02-25T08:07:12;5.20;99.90
17128;DHT22;8679;50.842;4.322;2023-02-25T08:09:38;5.20;99.90
17128;DHT22;8679;50.842;4.322;2023-02-25T08:12:06;5.20;99.90
17128;DHT22;8679;50.842;4.322;2023-02-25T08:14:33;5.20;99.90
17128;DHT22;8679;50.842;4.322;2023-02-25T08:16:59;5.30;99.90
17128;DHT22;8679;50.842;4.322;2023-02-25T08:19:27;5.30;99.90
17128;DHT22;8679;50.842;4.322;2023-02-25T08:21:52;5.30;99.90
17128;DHT22;8679;50.842;4.322;2023-02-25T08:24:21;5.40;99.90
17128;DHT22;8679;50.842;4.322;2023-02-25T08:26:48;5.50;99.90
17128;DHT22;8679;50.842;4.322;2023-02-25T08:29:14;5.60;99.90
17128;DHT22;8679;50.842;4.322;2023-02-25T08:31:40;5.70;99.90
17128;DHT22;8679;50.842;4.322;2023-02-25T08:34:05;5.90;99.90
17128;DHT22;8679;50.842;4.322;2023-02-25T08:36:31;6.00;99.90
17128;DHT22;8679;50.842;4.322;2023-02-25T08:38:58;6.20;99.90
17128;DHT22;8679;50.842;4.322;2023-02-25T08:41:25;6.20;99.90
17128;DHT22;8679;50.842;4.322;2023-02-25T08:43:53;6.10;99.90
17128;DHT22;8679;50.842;4.322;2023-02-25T08:46:20;6.20;99.90
17128;DHT22;8679;50.842;4.322;2023-02-25T08:48:48;6.10;99.90
17128;DHT22;8679;50.842;4.322;2023-02-25T08:51:14;6.10;99.90
17128;DHT22;8679;50.842;4.322;2023-02-25T08:53:40;6.10;99.90
17128;DHT22;8679;50.842;4.322;2023-02-25T08:56:08;6.20;99.90
17128;DHT22;8679;50.842;4.322;2023-02-25T08:58:35;6.30;99.90
17128;DHT22;8679;50.842;4.322;2023-02-25T09:01:09;6.40;99.90
17128;DHT22;8679;50.842;4.322;2023-02-25T09:03:42;6.40;99.90
17128;DHT22;8679;50.842;4.322;2023-02-25T09:06:27;6.30;99.90
17128;DHT22;8679;50.842;4.322;2023-02-25T09:08:54;6.30;99.90
17128;DHT22;8679;50.842;4.322;2023-02-25T09:11:20;6.30;99.90
17128;DHT22;8679;50.842;4.322;2023-02-25T09:13:46;6.50;99.90
17128;DHT22;8679;50.842;4.322;2023-02-25T09:16:13;6.70;99.90
17128;DHT22;8679;50.842;4.322;2023-02-25T09:18:43;6.80;99.90
17128;DHT22;8679;50.842;4.322;2023-02-25T09:21:10;7.10;99.90
17128;DHT22;8679;50.842;4.322;2023-02-25T09:23:36;7.00;90.10
17128;DHT22;8679;50.842;4.322;2023-02-25T09:26:03;7.20;99.70
17128;DHT22;8679;50.842;4.322;2023-02-25T09:28:29;7.00;91.00
17128;DHT22;8679;50.842;4.322;2023-02-25T09:30:56;7.10;99.90
17128;DHT22;8679;50.842;4.322;2023-02-25T09:33:23;7.10;99.90
17128;DHT22;8679;50.842;4.322;2023-02-25T09:35:49;7.10;79.70
17128;DHT22;8679;50.842;4.322;2023-02-25T09:38:15;7.00;68.80
17128;DHT22;8679;50.842;4.322;2023-02-25T09:40:45;6.80;91.20
17128;DHT22;8679;50.842;4.322;2023-02-25T09:45:49;6.70;99.90
17128;DHT22;8679;50.842;4.322;2023-02-25T09:51:39;6.80;99.90
17128;DHT22;8679;50.842;4.322;2023-02-25T09:54:22;6.90;99.90
17128;DHT22;8679;50.842;4.322;2023-02-25T09:57:01;6.80;99.90
17128;DHT22;8679;50.842;4.322;2023-02-25T09:59:36;6.80;99.90
17128;DHT22;8679;50.842;4.322;2023-02-25T10:02:42;6.90;99.90
17128;DHT22;8679;50.842;4.322;2023-02-25T10:05:17;6.90;99.90
17128;DHT22;8679;50.842;4.322;2023-02-25T10:07:57;7.00;99.90
17128;DHT22;8679;50.842;4.322;2023-02-25T10:10:50;7.10;99.90
17128;DHT22;8679;50.842;4.322;2023-02-25T10:13:24;7.10;99.90
17128;DHT22;8679;50.842;4.322;2023-02-25T10:22:19;7.40;96.80
17128;DHT22;8679;50.842;4.322;2023-02-25T10:25:07;7.50;87.90
17128;DHT22;8679;50.842;4.322;2023-02-25T10:27:39;7.50;67.90
17128;DHT22;8679;50.842;4.322;2023-02-25T10:30:30;7.90;93.80
17128;DHT22;8679;50.842;4.322;2023-02-25T10:33:03;8.20;21.10
17128;DHT22;8679;50.842;4.322;2023-02-25T10:35:37;8.30;1.00
17128;DHT22;8679;50.842;4.322;2023-02-25T10:38:03;8.40;21.30
17128;DHT22;8679;50.842;4.322;2023-02-25T10:40:29;8.30;1.00
17128;DHT22;8679;50.842;4.322;2023-02-25T10:42:59;8.20;8.30
17128;DHT22;8679;50.842;4.322;2023-02-25T10:45:29;8.10;20.60
17128;DHT22;8679;50.842;4.322;2023-02-25T10:48:05;8.00;40.00
17128;DHT22;8679;50.842;4.322;2023-02-25T10:50:31;7.90;50.30
17128;DHT22;8679;50.842;4.322;2023-02-25T10:53:11;7.90;49.30
17128;DHT22;8679;50.842;4.322;2023-02-25T11:04:17;7.30;76.50
17128;DHT22;8679;50.842;4.322;2023-02-25T11:06:43;7.10;93.30
17128;DHT22;8679;50.842;4.322;2023-02-25T11:14:27;7.30;46.40
17128;DHT22;8679;50.842;4.322;2023-02-25T11:17:02;7.20;68.10
17128;DHT22;8679;50.842;4.322;2023-02-25T11:19:30;7.20;69.90
17128;DHT22;8679;50.842;4.322;2023-02-25T11:21:58;7.30;72.60
17128;DHT22;8679;50.842;4.322;2023-02-25T11:24:30;7.60;83.40
17128;DHT22;8679;50.842;4.322;2023-02-25T11:26:59;7.80;29.10
17128;DHT22;8679;50.842;4.322;2023-02-25T11:29:37;8.00;1.00
17128;DHT22;8679;50.842;4.322;2023-02-25T11:32:21;8.10;1.00
17128;DHT22;8679;50.842;4.322;2023-02-25T11:34:51;8.20;1.00
17128;DHT22;8679;50.842;4.322;2023-02-25T11:43:13;8.60;1.00
17128;DHT22;8679;50.842;4.322;2023-02-25T11:46:18;8.90;1.00
17128;DHT22;8679;50.842;4.322;2023-02-25T11:48:51;9.30;1.00
17128;DHT22;8679;50.842;4.322;2023-02-25T11:52:02;9.80;1.00
17128;DHT22;8679;50.842;4.322;2023-02-25T12:00:27;10.40;99.90
17128;DHT22;8679;50.842;4.322;2023-02-25T12:11:31;9.60;99.90
17128;DHT22;8679;50.842;4.322;2023-02-25T12:14:16;9.40;99.90
17128;DHT22;8679;50.842;4.322;2023-02-25T12:26:03;7.50;99.90
17128;DHT22;8679;50.842;4.322;2023-02-25T12:31:53;7.60;99.90
17128;DHT22;8679;50.842;4.322;2023-02-25T12:37:39;8.00;99.90
17128;DHT22;8679;50.842;4.322;2023-02-25T12:40:40;8.30;99.90
17128;DHT22;8679;50.842;4.322;2023-02-25T12:43:48;8.50;99.90
17128;DHT22;8679;50.842;4.322;2023-02-25T12:46:30;8.70;99.90
17128;DHT22;8679;50.842;4.322;2023-02-25T12:52:17;10.10;99.90
17128;DHT22;8679;50.842;4.322;2023-02-25T13:01:47;12.10;99.90
17128;DHT22;8679;50.842;4.322;2023-02-25T13:09:10;13.70;99.90
17128;DHT22;8679;50.842;4.322;2023-02-25T13:22:32;15.00;99.90
17128;DHT22;8679;50.842;4.322;2023-02-25T13:25:17;14.70;99.90
17128;DHT22;8679;50.842;4.322;2023-02-25T13:41:35;11.50;99.90
17128;DHT22;8679;50.842;4.322;2023-02-25T13:46:58;10.80;99.90
17128;DHT22;8679;50.842;4.322;2023-02-25T13:52:35;11.30;99.90
17128;DHT22;8679;50.842;4.322;2023-02-25T13:58:05;12.70;99.90
17128;DHT22;8679;50.842;4.322;2023-02-25T14:03:47;14.00;99.90
17128;DHT22;8679;50.842;4.322;2023-02-25T14:31:48;14.30;99.90
17128;DHT22;8679;50.842;4.322;2023-02-25T14:45:35;14.20;99.90
17128;DHT22;8679;50.842;4.322;2023-02-25T14:48:13;13.00;99.90
17128;DHT22;8679;50.842;4.322;2023-02-25T15:24:38;11.40;99.90
17128;DHT22;8679;50.842;4.322;2023-02-25T15:38:11;11.40;99.90
17128;DHT22;8679;50.842;4.322;2023-02-25T15:40:46;11.80;99.90
17128;DHT22;8679;50.842;4.322;2023-02-25T16:08:55;11.80;99.90
17128;DHT22;8679;50.842;4.322;2023-02-25T16:11:37;11.40;99.90
17128;DHT22;8679;50.842;4.322;2023-02-25T16:14:29;11.00;99.90
17128;DHT22;8679;50.842;4.322;2023-02-25T16:17:04;10.70;99.90
17128;DHT22;8679;50.842;4.322;2023-02-25T16:19:33;10.50;99.90
17128;DHT22;8679;50.842;4.322;2023-02-25T16:22:27;10.20;99.90
17128;DHT22;8679;50.842;4.322;2023-02-25T16:24:55;10.00;99.90
17128;DHT22;8679;50.842;4.322;2023-02-25T16:27:52;10.10;99.90
17128;DHT22;8679;50.842;4.322;2023-02-25T16:30:30;10.30;99.90
17128;DHT22;8679;50.842;4.322;2023-02-25T16:33:10;10.40;99.90
17128;DHT22;8679;50.842;4.322;2023-02-25T16:35:50;10.60;99.90
17128;DHT22;8679;50.842;4.322;2023-02-25T16:40:44;10.70;99.90
17128;DHT22;8679;50.842;4.322;2023-02-25T16:43:22;10.70;99.90
17128;DHT22;8679;50.842;4.322;2023-02-25T16:45:57;10.60;99.90
17128;DHT22;8679;50.842;4.322;2023-02-25T16:53:44;10.60;99.90
17128;DHT22;8679;50.842;4.322;2023-02-25T16:56:23;10.40;99.90
17128;DHT22;8679;50.842;4.322;2023-02-25T16:59:03;10.20;99.90
17128;DHT22;8679;50.842;4.322;2023-02-25T17:01:31;9.70;99.90
17128;DHT22;8679;50.842;4.322;2023-02-25T17:04:20;9.10;99.90
17128;DHT22;8679;50.842;4.322;2023-02-25T17:07:24;8.60;99.90
17128;DHT22;8679;50.842;4.322;2023-02-25T17:09:53;8.20;99.90
17128;DHT22;8679;50.842;4.322;2023-02-25T17:12:39;7.90;99.90
17128;DHT22;8679;50.842;4.322;2023-02-25T17:15:26;7.70;99.90
17128;DHT22;8679;50.842;4.322;2023-02-25T17:20:26;7.30;99.90
17128;DHT22;8679;50.842;4.322;2023-02-25T17:22:54;7.20;99.90
17128;DHT22;8679;50.842;4.322;2023-02-25T17:25:22;7.00;99.90
17128;DHT22;8679;50.842;4.322;2023-02-25T17:27:51;6.90;99.90
17128;DHT22;8679;50.842;4.322;2023-02-25T17:30:40;6.80;99.90
17128;DHT22;8679;50.842;4.322;2023-02-25T17:33:24;6.70;99.90
17128;DHT22;8679;50.842;4.322;2023-02-25T17:36:15;6.50;99.90
17128;DHT22;8679;50.842;4.322;2023-02-25T17:38:42;6.40;99.90
17128;DHT22;8679;50.842;4.322;2023-02-25T17:41:18;6.30;99.90
17128;DHT22;8679;50.842;4.322;2023-02-25T17:43:45;6.30;99.90
17128;DHT22;8679;50.842;4.322;2023-02-25T17:48:58;6.10;99.90
17128;DHT22;8679;50.842;4.322;2023-02-25T17:51:32;6.00;99.90
17128;DHT22;8679;50.842;4.322;2023-02-25T17:54:04;6.00;99.90
17128;DHT22;8679;50.842;4.322;2023-02-25T17:56:32;5.90;99.90
17128;DHT22;8679;50.842;4.322;2023-02-25T17:59:02;5.90;99.90
17128;DHT22;8679;50.842;4.322;2023-02-25T18:04:34;5.70;99.90
17128;DHT22;8679;50.842;4.322;2023-02-25T18:07:31;5.60;99.90
17128;DHT22;8679;50.842;4.322;2023-02-25T18:09:58;5.60;99.90
17128;DHT22;8679;50.842;4.322;2023-02-25T18:12:28;5.50;99.90
17128;DHT22;8679;50.842;4.322;2023-02-25T18:14:59;5.50;99.90
17128;DHT22;8679;50.842;4.322;2023-02-25T18:17:35;5.40;99.90
17128;DHT22;8679;50.842;4.322;2023-02-25T18:20:05;5.30;99.90
17128;DHT22;8679;50.842;4.322;2023-02-25T18:25:07;5.20;99.90
17128;DHT22;8679;50.842;4.322;2023-02-25T18:27:53;5.20;99.90
17128;DHT22;8679;50.842;4.322;2023-02-25T18:30:21;5.20;99.90
17128;DHT22;8679;50.842;4.322;2023-02-25T18:32:47;5.10;99.90
17128;DHT22;8679;50.842;4.322;2023-02-25T18:35:13;5.10;99.90
17128;DHT22;8679;50.842;4.322;2023-02-25T18:37:40;5.10;99.90
17128;DHT22;8679;50.842;4.322;2023-02-25T18:40:06;5.10;99.90
17128;DHT22;8679;50.842;4.322;2023-02-25T18:42:35;5.10;99.90
17128;DHT22;8679;50.842;4.322;2023-02-25T18:45:10;5.00;99.90
17128;DHT22;8679;50.842;4.322;2023-02-25T18:47:37;5.00;99.90
17128;DHT22;8679;50.842;4.322;2023-02-25T18:50:03;4.90;99.90
17128;DHT22;8679;50.842;4.322;2023-02-25T18:52:28;4.90;99.90
17128;DHT22;8679;50.842;4.322;2023-02-25T18:54:54;4.80;99.90
17128;DHT22;8679;50.842;4.322;2023-02-25T18:57:25;4.80;99.90
17128;DHT22;8679;50.842;4.322;2023-02-25T18:59:51;4.70;99.90
17128;DHT22;8679;50.842;4.322;2023-02-25T19:02:30;4.70;99.90
17128;DHT22;8679;50.842;4.322;2023-02-25T19:04:56;4.70;99.90
17128;DHT22;8679;50.842;4.322;2023-02-25T19:07:29;4.60;99.90
17128;DHT22;8679;50.842;4.322;2023-02-25T19:09:55;4.60;99.90
17128;DHT22;8679;50.842;4.322;2023-02-25T19:12:23;4.60;99.90
17128;DHT22;8679;50.842;4.322;2023-02-25T19:14:55;4.60;99.90
17128;DHT22;8679;50.842;4.322;2023-02-25T19:17:22;4.50;99.90
17128;DHT22;8679;50.842;4.322;2023-02-25T19:19:48;4.50;99.90
17128;DHT22;8679;50.842;4.322;2023-02-25T19:22:14;4.40;99.90
17128;DHT22;8679;50.842;4.322;2023-02-25T19:24:46;4.30;99.90
17128;DHT22;8679;50.842;4.322;2023-02-25T19:27:25;4.30;99.90
17128;DHT22;8679;50.842;4.322;2023-02-25T19:29:54;4.30;99.90
17128;DHT22;8679;50.842;4.322;2023-02-25T19:32:20;4.20;99.90
17128;DHT22;8679;50.842;4.322;2023-02-25T19:34:46;4.10;99.90
17128;DHT22;8679;50.842;4.322;2023-02-25T19:37:14;4.10;99.90
17128;DHT22;8679;50.842;4.322;2023-02-25T19:39:40;4.10;99.90
17128;DHT22;8679;50.842;4.322;2023-02-25T19:42:07;4.10;99.90
17128;DHT22;8679;50.842;4.322;2023-02-25T19:44:34;4.00;99.90
17128;DHT22;8679;50.842;4.322;2023-02-25T19:47:00;4.00;99.90
17128;DHT22;8679;50.842;4.322;2023-02-25T19:49:26;4.00;99.90
17128;DHT22;8679;50.842;4.322;2023-02-25T19:51:53;3.90;99.90
17128;DHT22;8679;50.842;4.322;2023-02-25T19:54:19;3.90;99.90
17128;DHT22;8679;50.842;4.322;2023-02-25T19:56:46;4.00;99.90
17128;DHT22;8679;50.842;4.322;2023-02-25T19:59:12;3.90;99.90
17128;DHT22;8679;50.842;4.322;2023-02-25T20:01:38;3.90;99.90
17128;DHT22;8679;50.842;4.322;2023-02-25T20:04:05;3.80;99.90
17128;DHT22;8679;50.842;4.322;2023-02-25T20:06:31;3.80;99.90
17128;DHT22;8679;50.842;4.322;2023-02-25T20:09:01;3.80;99.90
17128;DHT22;8679;50.842;4.322;2023-02-25T20:11:27;3.80;99.90
17128;DHT22;8679;50.842;4.322;2023-02-25T20:13:52;3.70;99.90
17128;DHT22;8679;50.842;4.322;2023-02-25T20:16:18;3.70;99.90
17128;DHT22;8679;50.842;4.322;2023-02-25T20:18:54;3.60;99.90
17128;DHT22;8679;50.842;4.322;2023-02-25T20:21:23;3.60;99.90
17128;DHT22;8679;50.842;4.322;2023-02-25T20:23:49;3.60;99.90
17128;DHT22;8679;50.842;4.322;2023-02-25T20:26:15;3.50;99.90
17128;DHT22;8679;50.842;4.322;2023-02-25T20:28:43;3.50;99.90
17128;DHT22;8679;50.842;4.322;2023-02-25T20:31:11;3.50;99.90
17128;DHT22;8679;50.842;4.322;2023-02-25T20:33:37;3.40;99.90
17128;DHT22;8679;50.842;4.322;2023-02-25T20:36:18;3.50;99.90
17128;DHT22;8679;50.842;4.322;2023-02-25T20:39:30;3.40;99.90
17128;DHT22;8679;50.842;4.322;2023-02-25T20:41:59;3.30;99.90
17128;DHT22;8679;50.842;4.322;2023-02-25T20:44:25;3.30;99.90
17128;DHT22;8679;50.842;4.322;2023-02-25T20:46:51;3.20;99.90
17128;DHT22;8679;50.842;4.322;2023-02-25T20:49:17;3.10;99.90
17128;DHT22;8679;50.842;4.322;2023-02-25T20:51:45;3.10;99.90